sensor_id;sensor_type;location;lat;lon;timestamp;temperature;humidity
23991;DHT22;12205;50.600;4.608;2022-08-05T00:00:23;21.00;99.90
23991;DHT22;12205;50.600;4.608;2022-08-05T00:02:51;21.10;99.90
23991;DHT22;12205;50.600;4.608;2022-08-05T00:05:19;21.10;99.90
23991;DHT22;12205;50.600;4.608;2022-08-05T00:07:46;21.10;99.90
23991;DHT22;12205;50.600;4.608;2022-08-05T00:10:13;21.00;99.90
23991;DHT22;12205;50.600;4.608;2022-08-05T00:12:40;21.10;99.90
23991;DHT22;12205;50.600;4.608;2022-08-05T00:15:09;21.10;99.90
23991;DHT22;12205;50.600;4.608;2022-08-05T00:17:37;21.10;99.90
23991;DHT22;12205;50.600;4.608;2022-08-05T00:20:05;21.10;99.90
23991;DHT22;12205;50.600;4.608;2022-08-05T00:22:32;21.10;99.90
23991;DHT22;12205;50.600;4.608;2022-08-05T00:25:01;20.80;99.90
23991;DHT22;12205;50.600;4.608;2022-08-05T00:27:28;20.50;99.90
23991;DHT22;12205;50.600;4.608;2022-08-05T00:29:56;20.30;99.90
23991;DHT22;12205;50.600;4.608;2022-08-05T00:32:24;20.10;99.90
23991;DHT22;12205;50.600;4.608;2022-08-05T00:34:51;20.10;99.90
23991;DHT22;12205;50.600;4.608;2022-08-05T00:37:19;20.00;99.90
23991;DHT22;12205;50.600;4.608;2022-08-05T00:39:46;20.00;99.90
23991;DHT22;12205;50.600;4.608;2022-08-05T00:42:13;20.10;99.90
23991;DHT22;12205;50.600;4.608;2022-08-05T00:44:41;20.20;99.90
23991;DHT22;12205;50.600;4.608;2022-08-05T00:47:08;20.20;99.90
23991;DHT22;12205;50.600;4.608;2022-08-05T00:49:37;20.20;99.90
23991;DHT22;12205;50.600;4.608;2022-08-05T00:52:04;20.20;99.90
23991;DHT22;12205;50.600;4.608;2022-08-05T00:54:31;20.10;99.90
23991;DHT22;12205;50.600;4.608;2022-08-05T00:56:59;20.20;99.90
23991;DHT22;12205;50.600;4.608;2022-08-05T00:59:26;20.20;99.90
23991;DHT22;12205;50.600;4.608;2022-08-05T01:01:53;20.20;99.90
23991;DHT22;12205;50.600;4.608;2022-08-05T01:04:20;20.10;99.90
23991;DHT22;12205;50.600;4.608;2022-08-05T01:06:48;20.10;99.90
23991;DHT22;12205;50.600;4.608;2022-08-05T01:09:16;20.10;99.90
23991;DHT22;12205;50.600;4.608;2022-08-05T01:11:45;20.10;99.90
23991;DHT22;12205;50.600;4.608;2022-08-05T01:14:23;20.10;99.90
23991;DHT22;12205;50.600;4.608;2022-08-05T01:16:56;20.10;99.90
23991;DHT22;12205;50.600;4.608;2022-08-05T01:19:33;20.10;99.90
23991;DHT22;12205;50.600;4.608;2022-08-05T01:22:22;20.10;99.90
23991;DHT22;12205;50.600;4.608;2022-08-05T01:25:11;20.10;99.90
23991;DHT22;12205;50.600;4.608;2022-08-05T01:28:24;20.10;99.90
23991;DHT22;12205;50.600;4.608;2022-08-05T01:31:00;19.90;99.90
23991;DHT22;12205;50.600;4.608;2022-08-05T01:33:33;19.90;99.90
23991;DHT22;12205;50.600;4.608;2022-08-05T01:36:10;19.90;99.90
23991;DHT22;12205;50.600;4.608;2022-08-05T01:38:40;19.90;99.90
23991;DHT22;12205;50.600;4.608;2022-08-05T01:41:10;19.90;99.90
23991;DHT22;12205;50.600;4.608;2022-08-05T01:43:42;19.80;99.90
23991;DHT22;12205;50.600;4.608;2022-08-05T01:46:11;19.80;99.90
23991;DHT22;12205;50.600;4.608;2022-08-05T01:48:39;19.70;99.90
23991;DHT22;12205;50.600;4.608;2022-08-05T01:51:08;19.70;99.90
23991;DHT22;12205;50.600;4.608;2022-08-05T01:53:36;19.70;99.90
23991;DHT22;12205;50.600;4.608;2022-08-05T01:56:05;19.70;99.90
23991;DHT22;12205;50.600;4.608;2022-08-05T01:58:35;19.60;99.90
23991;DHT22;12205;50.600;4.608;2022-08-05T02:01:06;19.60;99.90
23991;DHT22;12205;50.600;4.608;2022-08-05T02:03:36;19.60;99.90
23991;DHT22;12205;50.600;4.608;2022-08-05T02:06:07;19.60;99.90
23991;DHT22;12205;50.600;4.608;2022-08-05T02:08:35;19.60;99.90
23991;DHT22;12205;50.600;4.608;2022-08-05T02:11:07;19.70;99.90
23991;DHT22;12205;50.600;4.608;2022-08-05T02:13:40;19.80;99.90
23991;DHT22;12205;50.600;4.608;2022-08-05T02:16:17;19.80;99.90
23991;DHT22;12205;50.600;4.608;2022-08-05T02:18:49;19.80;99.90
23991;DHT22;12205;50.600;4.608;2022-08-05T02:21:21;19.80;99.90
23991;DHT22;12205;50.600;4.608;2022-08-05T02:23:55;19.90;99.90
23991;DHT22;12205;50.600;4.608;2022-08-05T02:26:40;19.80;99.90
23991;DHT22;12205;50.600;4.608;2022-08-05T02:29:11;19.80;99.90
23991;DHT22;12205;50.600;4.608;2022-08-05T02:31:44;19.90;99.90
23991;DHT22;12205;50.600;4.608;2022-08-05T02:34:14;19.80;99.90
23991;DHT22;12205;50.600;4.608;2022-08-05T02:36:49;19.90;99.90
23991;DHT22;12205;50.600;4.608;2022-08-05T02:39:21;19.90;99.90
23991;DHT22;12205;50.600;4.608;2022-08-05T02:41:51;19.80;99.90
23991;DHT22;12205;50.600;4.608;2022-08-05T02:44:20;19.70;99.90
23991;DHT22;12205;50.600;4.608;2022-08-05T02:46:53;19.80;99.90
23991;DHT22;12205;50.600;4.608;2022-08-05T02:49:22;19.80;99.90
23991;DHT22;12205;50.600;4.608;2022-08-05T02:51:51;19.80;99.90
23991;DHT22;12205;50.600;4.608;2022-08-05T02:54:21;19.80;99.90
23991;DHT22;12205;50.600;4.608;2022-08-05T02:56:49;19.80;99.90
23991;DHT22;12205;50.600;4.608;2022-08-05T02:59:18;19.80;99.90
23991;DHT22;12205;50.600;4.608;2022-08-05T03:01:48;19.90;99.90
23991;DHT22;12205;50.600;4.608;2022-08-05T03:04:18;19.90;99.90
23991;DHT22;12205;50.600;4.608;2022-08-05T03:06:45;19.90;99.90
23991;DHT22;12205;50.600;4.608;2022-08-05T03:09:13;19.90;99.90
23991;DHT22;12205;50.600;4.608;2022-08-05T03:11:41;19.90;99.90
23991;DHT22;12205;50.600;4.608;2022-08-05T03:14:09;19.80;99.90
23991;DHT22;12205;50.600;4.608;2022-08-05T03:16:37;19.80;99.90
23991;DHT22;12205;50.600;4.608;2022-08-05T03:19:04;19.80;99.90
23991;DHT22;12205;50.600;4.608;2022-08-05T03:21:32;19.80;99.90
23991;DHT22;12205;50.600;4.608;2022-08-05T03:24:00;19.80;99.90
23991;DHT22;12205;50.600;4.608;2022-08-05T03:26:28;19.80;99.90
23991;DHT22;12205;50.600;4.608;2022-08-05T03:28:56;19.90;99.90
23991;DHT22;12205;50.600;4.608;2022-08-05T03:31:24;19.80;99.90
23991;DHT22;12205;50.600;4.608;2022-08-05T03:33:52;19.90;99.90
23991;DHT22;12205;50.600;4.608;2022-08-05T03:36:20;19.80;99.90
23991;DHT22;12205;50.600;4.608;2022-08-05T03:38:48;19.70;99.90
23991;DHT22;12205;50.600;4.608;2022-08-05T03:41:16;19.70;99.90
23991;DHT22;12205;50.600;4.608;2022-08-05T03:43:43;19.70;99.90
23991;DHT22;12205;50.600;4.608;2022-08-05T03:46:10;19.70;99.90
23991;DHT22;12205;50.600;4.608;2022-08-05T03:48:37;19.80;99.90
23991;DHT22;12205;50.600;4.608;2022-08-05T03:51:11;19.70;99.90
23991;DHT22;12205;50.600;4.608;2022-08-05T03:53:43;19.80;99.90
23991;DHT22;12205;50.600;4.608;2022-08-05T03:56:23;19.80;99.90
23991;DHT22;12205;50.600;4.608;2022-08-05T03:58:57;19.80;99.90
23991;DHT22;12205;50.600;4.608;2022-08-05T04:01:27;19.70;99.90
23991;DHT22;12205;50.600;4.608;2022-08-05T04:03:57;19.80;99.90
23991;DHT22;12205;50.600;4.608;2022-08-05T04:06:27;19.80;99.90
23991;DHT22;12205;50.600;4.608;2022-08-05T04:08:56;19.80;99.90
23991;DHT22;12205;50.600;4.608;2022-08-05T04:11:25;19.80;99.90
23991;DHT22;12205;50.600;4.608;2022-08-05T04:13:52;19.70;99.90
23991;DHT22;12205;50.600;4.608;2022-08-05T04:16:21;19.80;99.90
23991;DHT22;12205;50.600;4.608;2022-08-05T04:18:48;19.70;99.90
23991;DHT22;12205;50.600;4.608;2022-08-05T04:21:16;19.80;99.90
23991;DHT22;12205;50.600;4.608;2022-08-05T04:23:43;19.80;99.90
23991;DHT22;12205;50.600;4.608;2022-08-05T04:26:12;19.80;99.90
23991;DHT22;12205;50.600;4.608;2022-08-05T04:28:40;19.70;99.90
23991;DHT22;12205;50.600;4.608;2022-08-05T04:31:07;19.60;99.90
23991;DHT22;12205;50.600;4.608;2022-08-05T04:33:34;19.60;99.90
23991;DHT22;12205;50.600;4.608;2022-08-05T04:36:01;19.60;99.90
23991;DHT22;12205;50.600;4.608;2022-08-05T04:38:29;19.50;99.90
23991;DHT22;12205;50.600;4.608;2022-08-05T04:40:56;19.50;99.90
23991;DHT22;12205;50.600;4.608;2022-08-05T04:43:25;19.50;99.90
23991;DHT22;12205;50.600;4.608;2022-08-05T04:45:52;19.40;99.90
23991;DHT22;12205;50.600;4.608;2022-08-05T04:48:19;19.30;99.90
23991;DHT22;12205;50.600;4.608;2022-08-05T04:50:47;19.20;99.90
23991;DHT22;12205;50.600;4.608;2022-08-05T04:53:16;19.20;99.90
23991;DHT22;12205;50.600;4.608;2022-08-05T04:55:45;19.10;99.90
23991;DHT22;12205;50.600;4.608;2022-08-05T04:58:13;19.10;99.90
23991;DHT22;12205;50.600;4.608;2022-08-05T05:00:43;19.10;99.90
23991;DHT22;12205;50.600;4.608;2022-08-05T05:03:11;19.10;99.90
23991;DHT22;12205;50.600;4.608;2022-08-05T05:05:38;19.00;99.90
23991;DHT22;12205;50.600;4.608;2022-08-05T05:08:07;19.00;99.90
23991;DHT22;12205;50.600;4.608;2022-08-05T05:10:37;18.90;99.90
23991;DHT22;12205;50.600;4.608;2022-08-05T05:13:08;18.90;99.90
23991;DHT22;12205;50.600;4.608;2022-08-05T05:15:36;18.90;99.90
23991;DHT22;12205;50.600;4.608;2022-08-05T05:18:05;18.90;99.90
23991;DHT22;12205;50.600;4.608;2022-08-05T05:20:33;18.80;99.90
23991;DHT22;12205;50.600;4.608;2022-08-05T05:23:02;18.90;99.90
23991;DHT22;12205;50.600;4.608;2022-08-05T05:25:30;18.90;99.90
23991;DHT22;12205;50.600;4.608;2022-08-05T05:27:57;18.90;99.90
23991;DHT22;12205;50.600;4.608;2022-08-05T05:30:25;18.90;99.90
23991;DHT22;12205;50.600;4.608;2022-08-05T05:32:52;18.80;99.90
23991;DHT22;12205;50.600;4.608;2022-08-05T05:35:21;18.90;99.90
23991;DHT22;12205;50.600;4.608;2022-08-05T05:37:49;18.90;99.90
23991;DHT22;12205;50.600;4.608;2022-08-05T05:40:19;18.90;99.90
23991;DHT22;12205;50.600;4.608;2022-08-05T05:42:48;18.90;99.90
23991;DHT22;12205;50.600;4.608;2022-08-05T05:45:16;18.90;99.90
23991;DHT22;12205;50.600;4.608;2022-08-05T05:47:44;18.90;99.90
23991;DHT22;12205;50.600;4.608;2022-08-05T05:50:14;18.80;99.90
23991;DHT22;12205;50.600;4.608;2022-08-05T05:52:45;18.90;99.90
23991;DHT22;12205;50.600;4.608;2022-08-05T05:55:13;19.00;99.90
23991;DHT22;12205;50.600;4.608;2022-08-05T05:57:44;19.00;99.90
23991;DHT22;12205;50.600;4.608;2022-08-05T06:00:14;18.90;99.90
23991;DHT22;12205;50.600;4.608;2022-08-05T06:02:43;18.90;99.90
23991;DHT22;12205;50.600;4.608;2022-08-05T06:05:13;19.00;99.90
23991;DHT22;12205;50.600;4.608;2022-08-05T06:07:42;19.10;99.90
23991;DHT22;12205;50.600;4.608;2022-08-05T06:10:12;19.20;99.90
23991;DHT22;12205;50.600;4.608;2022-08-05T06:12:39;19.20;99.90
23991;DHT22;12205;50.600;4.608;2022-08-05T06:15:08;19.30;99.90
23991;DHT22;12205;50.600;4.608;2022-08-05T06:17:36;19.30;99.90
23991;DHT22;12205;50.600;4.608;2022-08-05T06:20:04;19.40;99.90
23991;DHT22;12205;50.600;4.608;2022-08-05T06:22:33;19.40;99.90
23991;DHT22;12205;50.600;4.608;2022-08-05T06:25:03;19.50;99.90
23991;DHT22;12205;50.600;4.608;2022-08-05T06:27:32;19.50;99.90
23991;DHT22;12205;50.600;4.608;2022-08-05T06:30:00;19.50;99.90
23991;DHT22;12205;50.600;4.608;2022-08-05T06:32:27;19.50;99.90
23991;DHT22;12205;50.600;4.608;2022-08-05T06:34:55;19.50;99.90
23991;DHT22;12205;50.600;4.608;2022-08-05T06:37:24;19.60;99.90
23991;DHT22;12205;50.600;4.608;2022-08-05T06:39:52;19.60;99.90
23991;DHT22;12205;50.600;4.608;2022-08-05T06:42:20;19.50;99.90
23991;DHT22;12205;50.600;4.608;2022-08-05T06:44:48;19.50;99.90
23991;DHT22;12205;50.600;4.608;2022-08-05T06:47:15;19.50;99.90
23991;DHT22;12205;50.600;4.608;2022-08-05T06:49:42;19.40;99.90
23991;DHT22;12205;50.600;4.608;2022-08-05T06:52:09;19.50;99.90
23991;DHT22;12205;50.600;4.608;2022-08-05T06:54:36;19.60;99.90
23991;DHT22;12205;50.600;4.608;2022-08-05T06:57:04;19.60;99.90
23991;DHT22;12205;50.600;4.608;2022-08-05T06:59:32;19.70;99.90
23991;DHT22;12205;50.600;4.608;2022-08-05T07:01:59;19.60;99.90
23991;DHT22;12205;50.600;4.608;2022-08-05T07:04:27;19.60;99.90
23991;DHT22;12205;50.600;4.608;2022-08-05T07:06:54;19.70;99.90
23991;DHT22;12205;50.600;4.608;2022-08-05T07:09:21;19.70;99.90
23991;DHT22;12205;50.600;4.608;2022-08-05T07:11:48;19.80;99.90
23991;DHT22;12205;50.600;4.608;2022-08-05T07:14:16;20.00;99.90
23991;DHT22;12205;50.600;4.608;2022-08-05T07:17:03;20.00;99.90
23991;DHT22;12205;50.600;4.608;2022-08-05T07:19:30;20.10;99.90
23991;DHT22;12205;50.600;4.608;2022-08-05T07:21:57;20.30;99.90
23991;DHT22;12205;50.600;4.608;2022-08-05T07:24:24;20.30;99.90
23991;DHT22;12205;50.600;4.608;2022-08-05T07:26:52;20.30;99.90
23991;DHT22;12205;50.600;4.608;2022-08-05T07:29:19;20.50;99.90
23991;DHT22;12205;50.600;4.608;2022-08-05T07:31:46;20.60;99.90
23991;DHT22;12205;50.600;4.608;2022-08-05T07:34:14;20.70;99.90
23991;DHT22;12205;50.600;4.608;2022-08-05T07:36:42;20.80;99.90
23991;DHT22;12205;50.600;4.608;2022-08-05T07:39:09;20.90;99.90
23991;DHT22;12205;50.600;4.608;2022-08-05T07:41:36;20.90;99.90
23991;DHT22;12205;50.600;4.608;2022-08-05T07:44:05;20.80;99.90
23991;DHT22;12205;50.600;4.608;2022-08-05T07:46:33;20.80;99.90
23991;DHT22;12205;50.600;4.608;2022-08-05T07:49:02;20.90;99.90
23991;DHT22;12205;50.600;4.608;2022-08-05T07:51:32;20.80;99.90
23991;DHT22;12205;50.600;4.608;2022-08-05T07:54:00;21.00;99.90
23991;DHT22;12205;50.600;4.608;2022-08-05T07:56:27;21.00;99.90
23991;DHT22;12205;50.600;4.608;2022-08-05T07:58:54;21.00;99.90
23991;DHT22;12205;50.600;4.608;2022-08-05T08:01:22;21.00;99.90
23991;DHT22;12205;50.600;4.608;2022-08-05T08:03:50;21.00;99.90
23991;DHT22;12205;50.600;4.608;2022-08-05T08:06:18;21.00;99.90
23991;DHT22;12205;50.600;4.608;2022-08-05T08:08:46;21.00;99.90
23991;DHT22;12205;50.600;4.608;2022-08-05T08:11:13;21.10;99.90
23991;DHT22;12205;50.600;4.608;2022-08-05T08:13:41;21.10;99.90
23991;DHT22;12205;50.600;4.608;2022-08-05T08:16:08;21.20;99.90
23991;DHT22;12205;50.600;4.608;2022-08-05T08:18:35;21.30;99.90
23991;DHT22;12205;50.600;4.608;2022-08-05T08:21:04;21.40;99.90
23991;DHT22;12205;50.600;4.608;2022-08-05T08:23:31;21.30;99.90
23991;DHT22;12205;50.600;4.608;2022-08-05T08:26:01;21.30;99.90
23991;DHT22;12205;50.600;4.608;2022-08-05T08:28:28;21.40;99.90
23991;DHT22;12205;50.600;4.608;2022-08-05T08:30:56;21.40;99.90
23991;DHT22;12205;50.600;4.608;2022-08-05T08:33:23;21.60;99.90
23991;DHT22;12205;50.600;4.608;2022-08-05T08:35:50;21.70;99.90
23991;DHT22;12205;50.600;4.608;2022-08-05T08:38:17;21.90;99.90
23991;DHT22;12205;50.600;4.608;2022-08-05T08:40:45;22.00;99.90
23991;DHT22;12205;50.600;4.608;2022-08-05T08:43:15;22.10;99.90
23991;DHT22;12205;50.600;4.608;2022-08-05T08:45:48;22.20;99.90
23991;DHT22;12205;50.600;4.608;2022-08-05T08:48:20;22.30;99.90
23991;DHT22;12205;50.600;4.608;2022-08-05T08:50:48;22.40;99.90
23991;DHT22;12205;50.600;4.608;2022-08-05T08:53:16;22.40;99.90
23991;DHT22;12205;50.600;4.608;2022-08-05T08:55:45;22.40;99.90
23991;DHT22;12205;50.600;4.608;2022-08-05T08:58:15;22.50;99.90
23991;DHT22;12205;50.600;4.608;2022-08-05T09:00:43;22.50;99.90
23991;DHT22;12205;50.600;4.608;2022-08-05T09:03:11;22.60;99.90
23991;DHT22;12205;50.600;4.608;2022-08-05T09:05:39;22.70;99.90
23991;DHT22;12205;50.600;4.608;2022-08-05T09:08:06;22.80;99.90
23991;DHT22;12205;50.600;4.608;2022-08-05T09:10:33;22.90;99.90
23991;DHT22;12205;50.600;4.608;2022-08-05T09:13:01;22.90;99.90
23991;DHT22;12205;50.600;4.608;2022-08-05T09:15:29;23.00;99.90
23991;DHT22;12205;50.600;4.608;2022-08-05T09:17:57;23.00;99.90
23991;DHT22;12205;50.600;4.608;2022-08-05T09:20:24;23.10;99.90
23991;DHT22;12205;50.600;4.608;2022-08-05T09:23:06;23.20;99.90
23991;DHT22;12205;50.600;4.608;2022-08-05T09:25:38;23.20;99.90
23991;DHT22;12205;50.600;4.608;2022-08-05T09:28:11;23.20;99.90
23991;DHT22;12205;50.600;4.608;2022-08-05T09:30:51;23.00;99.90
23991;DHT22;12205;50.600;4.608;2022-08-05T09:33:20;22.90;99.90
23991;DHT22;12205;50.600;4.608;2022-08-05T09:35:59;22.80;99.90
23991;DHT22;12205;50.600;4.608;2022-08-05T09:38:28;22.90;99.90
23991;DHT22;12205;50.600;4.608;2022-08-05T09:41:02;23.00;99.90
23991;DHT22;12205;50.600;4.608;2022-08-05T09:43:32;23.00;99.90
23991;DHT22;12205;50.600;4.608;2022-08-05T09:46:03;23.20;99.90
23991;DHT22;12205;50.600;4.608;2022-08-05T09:48:36;23.00;99.90
23991;DHT22;12205;50.600;4.608;2022-08-05T09:51:06;23.10;99.90
23991;DHT22;12205;50.600;4.608;2022-08-05T09:53:46;23.20;99.90
23991;DHT22;12205;50.600;4.608;2022-08-05T09:56:23;23.20;99.90
23991;DHT22;12205;50.600;4.608;2022-08-05T09:58:55;23.00;99.90
23991;DHT22;12205;50.600;4.608;2022-08-05T10:01:26;23.00;99.90
23991;DHT22;12205;50.600;4.608;2022-08-05T10:03:54;23.00;99.90
23991;DHT22;12205;50.600;4.608;2022-08-05T10:06:24;23.00;99.90
23991;DHT22;12205;50.600;4.608;2022-08-05T10:08:52;23.20;99.90
23991;DHT22;12205;50.600;4.608;2022-08-05T10:11:21;23.40;99.90
23991;DHT22;12205;50.600;4.608;2022-08-05T10:13:48;23.40;99.90
23991;DHT22;12205;50.600;4.608;2022-08-05T10:16:31;23.50;99.90
23991;DHT22;12205;50.600;4.608;2022-08-05T10:19:00;23.30;99.90
23991;DHT22;12205;50.600;4.608;2022-08-05T10:21:28;23.30;99.90
23991;DHT22;12205;50.600;4.608;2022-08-05T10:23:55;23.40;99.90
23991;DHT22;12205;50.600;4.608;2022-08-05T10:26:22;23.70;99.90
23991;DHT22;12205;50.600;4.608;2022-08-05T10:28:50;23.90;99.90
23991;DHT22;12205;50.600;4.608;2022-08-05T10:31:17;24.10;99.90
23991;DHT22;12205;50.600;4.608;2022-08-05T10:33:46;24.00;99.90
23991;DHT22;12205;50.600;4.608;2022-08-05T10:36:13;24.10;99.90
23991;DHT22;12205;50.600;4.608;2022-08-05T10:38:44;24.10;99.90
23991;DHT22;12205;50.600;4.608;2022-08-05T10:41:19;24.00;99.90
23991;DHT22;12205;50.600;4.608;2022-08-05T10:43:57;23.80;99.90
23991;DHT22;12205;50.600;4.608;2022-08-05T10:46:43;23.50;99.90
23991;DHT22;12205;50.600;4.608;2022-08-05T10:49:13;23.40;99.90
23991;DHT22;12205;50.600;4.608;2022-08-05T10:51:44;23.30;99.90
23991;DHT22;12205;50.600;4.608;2022-08-05T10:54:13;23.20;99.90
23991;DHT22;12205;50.600;4.608;2022-08-05T10:56:45;23.20;99.90
23991;DHT22;12205;50.600;4.608;2022-08-05T10:59:16;23.20;99.90
23991;DHT22;12205;50.600;4.608;2022-08-05T11:01:44;23.30;99.90
23991;DHT22;12205;50.600;4.608;2022-08-05T11:04:15;23.30;99.90
23991;DHT22;12205;50.600;4.608;2022-08-05T11:09:37;23.70;99.90
23991;DHT22;12205;50.600;4.608;2022-08-05T11:12:42;23.90;99.90
23991;DHT22;12205;50.600;4.608;2022-08-05T11:15:19;24.00;99.90
23991;DHT22;12205;50.600;4.608;2022-08-05T11:17:48;24.10;99.90
23991;DHT22;12205;50.600;4.608;2022-08-05T11:20:42;24.20;99.90
23991;DHT22;12205;50.600;4.608;2022-08-05T11:23:31;24.00;99.90
23991;DHT22;12205;50.600;4.608;2022-08-05T11:26:01;23.70;99.90
23991;DHT22;12205;50.600;4.608;2022-08-05T11:28:44;23.50;99.90
23991;DHT22;12205;50.600;4.608;2022-08-05T11:31:29;23.60;99.90
23991;DHT22;12205;50.600;4.608;2022-08-05T11:34:03;23.90;99.90
23991;DHT22;12205;50.600;4.608;2022-08-05T11:36:47;24.20;99.90
23991;DHT22;12205;50.600;4.608;2022-08-05T11:39:46;24.40;99.90
23991;DHT22;12205;50.600;4.608;2022-08-05T11:42:21;24.60;99.90
23991;DHT22;12205;50.600;4.608;2022-08-05T11:44:50;24.60;99.90
23991;DHT22;12205;50.600;4.608;2022-08-05T11:47:23;24.60;99.90
23991;DHT22;12205;50.600;4.608;2022-08-05T11:49:55;24.80;99.90
23991;DHT22;12205;50.600;4.608;2022-08-05T11:52:25;24.90;99.90
23991;DHT22;12205;50.600;4.608;2022-08-05T11:54:53;25.00;99.90
23991;DHT22;12205;50.600;4.608;2022-08-05T11:57:20;25.20;99.90
23991;DHT22;12205;50.600;4.608;2022-08-05T11:59:54;25.40;99.90
23991;DHT22;12205;50.600;4.608;2022-08-05T12:02:26;25.80;99.90
23991;DHT22;12205;50.600;4.608;2022-08-05T12:04:56;26.10;99.90
23991;DHT22;12205;50.600;4.608;2022-08-05T12:07:24;26.20;99.90
23991;DHT22;12205;50.600;4.608;2022-08-05T12:09:53;26.20;99.90
23991;DHT22;12205;50.600;4.608;2022-08-05T12:12:23;26.30;99.90
23991;DHT22;12205;50.600;4.608;2022-08-05T12:14:54;26.20;99.90
23991;DHT22;12205;50.600;4.608;2022-08-05T12:17:22;26.50;99.90
23991;DHT22;12205;50.600;4.608;2022-08-05T12:19:53;26.60;99.90
23991;DHT22;12205;50.600;4.608;2022-08-05T12:22:27;26.50;99.90
23991;DHT22;12205;50.600;4.608;2022-08-05T12:24:55;26.40;99.90
23991;DHT22;12205;50.600;4.608;2022-08-05T12:27:23;27.00;99.90
23991;DHT22;12205;50.600;4.608;2022-08-05T12:29:59;27.40;99.90
23991;DHT22;12205;50.600;4.608;2022-08-05T12:32:27;27.60;99.90
23991;DHT22;12205;50.600;4.608;2022-08-05T12:34:58;27.60;99.90
23991;DHT22;12205;50.600;4.608;2022-08-05T12:37:25;27.30;99.90
23991;DHT22;12205;50.600;4.608;2022-08-05T12:39:55;26.70;99.90
23991;DHT22;12205;50.600;4.608;2022-08-05T12:42:28;26.30;99.90
23991;DHT22;12205;50.600;4.608;2022-08-05T12:45:00;26.20;99.90
23991;DHT22;12205;50.600;4.608;2022-08-05T12:47:30;27.00;99.90
23991;DHT22;12205;50.600;4.608;2022-08-05T12:49:58;27.60;99.90
23991;DHT22;12205;50.600;4.608;2022-08-05T12:52:29;28.50;99.90
23991;DHT22;12205;50.600;4.608;2022-08-05T12:54:58;28.80;99.90
23991;DHT22;12205;50.600;4.608;2022-08-05T12:57:25;29.50;99.90
23991;DHT22;12205;50.600;4.608;2022-08-05T13:00:01;30.10;99.90
23991;DHT22;12205;50.600;4.608;2022-08-05T13:02:30;30.40;99.90
23991;DHT22;12205;50.600;4.608;2022-08-05T13:04:57;30.10;99.90
23991;DHT22;12205;50.600;4.608;2022-08-05T13:07:25;30.40;99.90
23991;DHT22;12205;50.600;4.608;2022-08-05T13:09:54;30.00;99.70
23991;DHT22;12205;50.600;4.608;2022-08-05T13:12:24;29.60;99.90
23991;DHT22;12205;50.600;4.608;2022-08-05T13:14:55;29.50;99.10
23991;DHT22;12205;50.600;4.608;2022-08-05T13:17:24;30.10;99.00
23991;DHT22;12205;50.600;4.608;2022-08-05T13:20:04;30.30;99.80
23991;DHT22;12205;50.600;4.608;2022-08-05T13:22:34;30.40;98.70
23991;DHT22;12205;50.600;4.608;2022-08-05T13:25:04;30.40;97.70
23991;DHT22;12205;50.600;4.608;2022-08-05T13:27:35;30.20;96.70
23991;DHT22;12205;50.600;4.608;2022-08-05T13:30:06;28.70;98.40
23991;DHT22;12205;50.600;4.608;2022-08-05T13:32:34;28.00;99.30
23991;DHT22;12205;50.600;4.608;2022-08-05T13:35:02;27.80;99.90
23991;DHT22;12205;50.600;4.608;2022-08-05T13:37:31;27.90;99.90
23991;DHT22;12205;50.600;4.608;2022-08-05T13:39:59;28.60;99.90
23991;DHT22;12205;50.600;4.608;2022-08-05T13:42:26;29.20;98.40
23991;DHT22;12205;50.600;4.608;2022-08-05T13:44:55;30.00;98.50
23991;DHT22;12205;50.600;4.608;2022-08-05T13:47:23;29.90;97.40
23991;DHT22;12205;50.600;4.608;2022-08-05T13:49:52;29.10;97.60
23991;DHT22;12205;50.600;4.608;2022-08-05T13:52:20;28.60;98.10
23991;DHT22;12205;50.600;4.608;2022-08-05T13:54:51;27.90;97.50
23991;DHT22;12205;50.600;4.608;2022-08-05T13:57:19;27.40;98.30
23991;DHT22;12205;50.600;4.608;2022-08-05T13:59:46;27.90;98.20
23991;DHT22;12205;50.600;4.608;2022-08-05T14:02:16;28.30;96.90
23991;DHT22;12205;50.600;4.608;2022-08-05T14:04:45;27.80;96.60
23991;DHT22;12205;50.600;4.608;2022-08-05T14:07:32;27.50;96.60
23991;DHT22;12205;50.600;4.608;2022-08-05T14:10:05;27.10;97.80
23991;DHT22;12205;50.600;4.608;2022-08-05T14:12:33;27.00;98.90
23991;DHT22;12205;50.600;4.608;2022-08-05T14:15:00;26.80;98.20
23991;DHT22;12205;50.600;4.608;2022-08-05T14:17:29;26.70;98.20
23991;DHT22;12205;50.600;4.608;2022-08-05T14:19:56;27.00;97.70
23991;DHT22;12205;50.600;4.608;2022-08-05T14:22:23;27.50;98.10
23991;DHT22;12205;50.600;4.608;2022-08-05T14:24:51;27.90;97.40
23991;DHT22;12205;50.600;4.608;2022-08-05T14:27:19;28.00;96.00
23991;DHT22;12205;50.600;4.608;2022-08-05T14:29:46;27.70;95.10
23991;DHT22;12205;50.600;4.608;2022-08-05T14:32:13;27.70;95.20
23991;DHT22;12205;50.600;4.608;2022-08-05T14:34:42;28.50;96.30
23991;DHT22;12205;50.600;4.608;2022-08-05T14:37:09;29.50;94.40
23991;DHT22;12205;50.600;4.608;2022-08-05T14:39:36;29.90;92.30
23991;DHT22;12205;50.600;4.608;2022-08-05T14:42:04;29.80;92.70
23991;DHT22;12205;50.600;4.608;2022-08-05T14:44:32;30.40;92.30
23991;DHT22;12205;50.600;4.608;2022-08-05T14:46:59;30.30;90.60
23991;DHT22;12205;50.600;4.608;2022-08-05T14:49:26;30.50;91.60
23991;DHT22;12205;50.600;4.608;2022-08-05T14:51:55;30.10;90.50
23991;DHT22;12205;50.600;4.608;2022-08-05T14:54:22;29.50;90.50
23991;DHT22;12205;50.600;4.608;2022-08-05T14:56:49;28.70;90.70
23991;DHT22;12205;50.600;4.608;2022-08-05T14:59:16;28.40;91.30
23991;DHT22;12205;50.600;4.608;2022-08-05T15:01:45;28.90;91.20
23991;DHT22;12205;50.600;4.608;2022-08-05T15:04:13;28.90;90.30
23991;DHT22;12205;50.600;4.608;2022-08-05T15:06:40;28.50;91.50
23991;DHT22;12205;50.600;4.608;2022-08-05T15:09:11;28.10;91.40
23991;DHT22;12205;50.600;4.608;2022-08-05T15:11:39;28.20;92.70
23991;DHT22;12205;50.600;4.608;2022-08-05T15:14:06;29.10;91.30
23991;DHT22;12205;50.600;4.608;2022-08-05T15:16:33;30.10;91.20
23991;DHT22;12205;50.600;4.608;2022-08-05T15:19:00;29.60;89.10
23991;DHT22;12205;50.600;4.608;2022-08-05T15:21:28;29.20;89.20
23991;DHT22;12205;50.600;4.608;2022-08-05T15:23:59;29.20;91.20
23991;DHT22;12205;50.600;4.608;2022-08-05T15:26:28;29.50;88.80
23991;DHT22;12205;50.600;4.608;2022-08-05T15:28:55;30.00;88.40
23991;DHT22;12205;50.600;4.608;2022-08-05T15:31:22;29.70;87.50
23991;DHT22;12205;50.600;4.608;2022-08-05T15:33:49;28.80;87.50
23991;DHT22;12205;50.600;4.608;2022-08-05T15:36:17;28.50;90.00
23991;DHT22;12205;50.600;4.608;2022-08-05T15:38:44;28.50;89.90
23991;DHT22;12205;50.600;4.608;2022-08-05T15:41:12;28.00;89.10
23991;DHT22;12205;50.600;4.608;2022-08-05T15:43:41;27.60;90.60
23991;DHT22;12205;50.600;4.608;2022-08-05T15:46:08;28.20;90.80
23991;DHT22;12205;50.600;4.608;2022-08-05T15:48:35;28.20;90.40